Continental, OH (45837)

12:24 AM EDT on July 25, 2016 (GMT -0400)
Homer March Farms LLC | | Change Station

Elev 715 ft 41.11 °N, 84.19 °W | Updated 7 seconds ago

Clear
Clear
78.8 °F
Feels Like 79 °F
N
0.0
Wind Variable Wind from NW
Gusts 0.0 mph

Today
High -- | Low -- °F
--% Chance of Precip.
Yesterday
High -- | Low -- °F
Precip. -- in
Pressure 29.90 in
Visibility 10.0 miles
Clouds Clear
Heat Index 79 °F
Dew Point 53 °F
Humidity 41%
Rainfall 0.00 in
Snow Depth Not available.
6:26 AM 8:59 PM
Waning Gibbous, 70% visible
METAR KDFI 250353Z AUTO 21003KT 10SM CLR 27/23 A2992 RMK AO2 SLP125 T02720233
Pressure 29.90 in
Visibility 10.0 miles
Clouds Clear
Heat Index 79 °F
Dew Point 53 °F
Humidity 41%
Rainfall 0.00 in
Snow Depth Not available.
6:26 AM 8:59 PM
Waning Gibbous, 70% visible
METAR KDFI 250353Z AUTO 21003KT 10SM CLR 27/23 A2992 RMK AO2 SLP125 T02720233

10-Day Weather Forecast

Almanac

Astronomy

Jul. 25, 2016 Rise Set
Actual Time
Civil Twilight
Nautical Twilight
Astronomical Twilight
Moon
Length of Visible Light
Length of Day
Tomorrow will be .
, % of the Moon is Illuminated

Today's Extremes

State Highs State Lows

Community

WunderPhotos

Upload Photos

1,927,264 photos uploaded!

WunderBlog® & News

Nearby

Air Quality

  Air Quality AQ Index Pollutant
Not available.

Snow Depth

Station Depth Elevation

Earthquake Activity

City Distance Mag. Time & Date
Minimum magnitude displayed is 2.5.

Coastal Water Temperatures

Place Temperature

Stations

Nearby Weather Stations

Station Location Temp. Windchill Dew Point Humidity Wind Precip. Elev Updated Type
                   

Watches & Warnings

There are currently no watches in effect.